createdAt,value
2017-10-19T00:00:39.421Z,83.12
2017-10-19T00:03:06.806Z,83.01
2017-10-19T00:05:34.206Z,82.89
2017-10-19T00:08:01.615Z,82.80
2017-10-19T00:10:29.014Z,82.78
2017-10-19T00:12:56.405Z,82.77
2017-10-19T00:15:23.810Z,82.87
2017-10-19T00:17:51.202Z,82.84
2017-10-19T00:20:18.594Z,82.92
2017-10-19T00:22:46.001Z,83.06
2017-10-19T00:25:13.394Z,83.20
2017-10-19T00:27:40.803Z,83.18
2017-10-19T00:30:08.202Z,83.28
2017-10-19T00:32:35.593Z,83.46
2017-10-19T00:35:02.989Z,83.61
2017-10-19T00:37:30.405Z,83.55
2017-10-19T00:39:57.803Z,83.48
2017-10-19T00:42:25.185Z,83.50
2017-10-19T00:44:52.593Z,83.48
2017-10-19T00:47:19.989Z,83.67
2017-10-19T00:49:47.387Z,83.71
2017-10-19T00:52:14.786Z,83.82
2017-10-19T00:54:42.186Z,84.26
2017-10-19T00:57:09.586Z,84.28
2017-10-19T00:59:37.001Z,84.36
2017-10-19T01:02:04.390Z,84.43
2017-10-19T01:04:31.790Z,84.31
2017-10-19T01:06:59.202Z,84.44
2017-10-19T01:09:26.607Z,84.37
2017-10-19T01:11:54.017Z,84.35
2017-10-19T01:14:21.418Z,84.25
2017-10-19T01:16:48.833Z,84.20
2017-10-19T01:19:16.228Z,84.23
2017-10-19T01:21:43.647Z,84.33
2017-10-19T01:24:11.033Z,84.22
2017-10-19T01:26:38.421Z,84.45
2017-10-19T01:29:05.830Z,84.58
2017-10-19T01:31:33.222Z,85.13
2017-10-19T01:34:00.610Z,85.09
2017-10-19T01:36:28.027Z,85.00
2017-10-19T01:38:55.423Z,84.83
2017-10-19T01:41:22.815Z,84.89
2017-10-19T01:43:50.253Z,84.87
2017-10-19T01:46:17.610Z,85.13
2017-10-19T01:48:45.006Z,85.45
2017-10-19T01:51:12.414Z,85.71
2017-10-19T01:53:39.804Z,85.88
2017-10-19T01:56:07.208Z,86.18
2017-10-19T01:58:34.611Z,86.27
2017-10-19T02:01:02.011Z,86.24
2017-10-19T02:03:29.405Z,87.09
2017-10-19T02:05:56.811Z,87.22
2017-10-19T02:08:24.202Z,86.85
2017-10-19T02:10:51.591Z,86.96
2017-10-19T02:13:18.993Z,86.92
2017-10-19T02:15:46.396Z,87.24
2017-10-19T02:18:13.785Z,87.03
2017-10-19T02:20:41.190Z,87.10
2017-10-19T02:23:08.581Z,87.59
2017-10-19T02:25:35.975Z,87.64
2017-10-19T02:28:03.392Z,87.92
2017-10-19T02:30:30.793Z,88.15
2017-10-19T02:32:58.186Z,88.11
2017-10-19T02:35:25.595Z,87.47
2017-10-19T02:37:52.994Z,87.27
2017-10-19T02:40:20.389Z,87.08
2017-10-19T02:42:47.794Z,87.09
2017-10-19T02:45:15.193Z,87.09
2017-10-19T02:47:42.587Z,87.38
2017-10-19T02:50:10.001Z,87.39
2017-10-19T02:52:37.386Z,87.39
2017-10-19T02:55:04.785Z,87.54
2017-10-19T02:57:32.192Z,87.76
2017-10-19T02:59:59.587Z,87.86
2017-10-19T03:02:26.983Z,87.86
2017-10-19T03:04:54.385Z,87.86
2017-10-19T03:07:21.778Z,87.86
2017-10-19T03:09:49.170Z,88.23
2017-10-19T03:12:16.577Z,88.40
2017-10-19T03:14:43.977Z,88.36
2017-10-19T03:17:11.384Z,88.42
2017-10-19T03:19:38.794Z,88.78
2017-10-19T03:22:06.193Z,89.01
2017-10-19T03:24:33.582Z,88.96
2017-10-19T03:27:00.985Z,89.08
2017-10-19T03:29:28.375Z,89.14
2017-10-19T03:31:55.765Z,89.04
2017-10-19T03:34:23.171Z,89.08
2017-10-19T03:36:50.557Z,89.07
2017-10-19T03:39:17.953Z,89.11
2017-10-19T03:41:45.369Z,89.64
2017-10-19T03:44:12.765Z,89.34
2017-10-19T03:46:40.157Z,89.91
2017-10-19T03:49:07.556Z,89.81
2017-10-19T03:51:34.945Z,89.66
2017-10-19T03:54:02.334Z,89.52
2017-10-19T03:56:29.741Z,89.55
2017-10-19T03:58:57.134Z,89.41
2017-10-19T04:01:24.525Z,89.40
2017-10-19T04:03:51.930Z,89.32
2017-10-19T04:06:19.317Z,89.47
2017-10-19T04:08:46.709Z,89.51
2017-10-19T04:11:14.110Z,89.51
2017-10-19T04:13:41.498Z,89.52
2017-10-19T04:16:08.889Z,89.47
2017-10-19T04:18:36.292Z,89.56
2017-10-19T04:21:03.682Z,89.69
2017-10-19T04:23:31.069Z,89.62
2017-10-19T04:25:58.473Z,89.53
2017-10-19T04:28:25.891Z,89.53
2017-10-19T04:30:53.274Z,89.58
2017-10-19T04:33:20.674Z,89.76
2017-10-19T04:35:48.062Z,89.89
2017-10-19T04:38:15.457Z,90.04
2017-10-19T04:40:42.862Z,90.00
2017-10-19T04:43:10.253Z,90.08
2017-10-19T04:45:37.656Z,90.18
2017-10-19T04:48:05.061Z,90.28
2017-10-19T04:50:32.455Z,90.43
2017-10-19T04:52:59.842Z,90.48
2017-10-19T04:55:27.242Z,90.42
2017-10-19T04:57:54.644Z,90.42
2017-10-19T05:00:22.175Z,90.81
2017-10-19T05:02:49.585Z,90.51
2017-10-19T05:05:16.983Z,90.49
2017-10-19T05:07:44.373Z,90.49
2017-10-19T05:10:11.778Z,90.55
2017-10-19T05:12:39.169Z,90.64
2017-10-19T05:15:06.562Z,90.60
2017-10-19T05:17:33.975Z,90.67
2017-10-19T05:20:01.367Z,90.61
2017-10-19T05:22:28.762Z,91.64
2017-10-19T05:24:56.168Z,91.20
2017-10-19T05:27:23.561Z,90.72
2017-10-19T05:29:51.774Z,90.69
2017-10-19T05:32:19.182Z,90.50
2017-10-19T05:34:46.573Z,90.57
2017-10-19T05:37:13.968Z,90.67
2017-10-19T05:39:41.378Z,90.78
2017-10-19T05:42:08.766Z,90.88
2017-10-19T05:44:36.157Z,90.95
2017-10-19T05:47:03.574Z,90.83
2017-10-19T05:49:30.966Z,90.78
2017-10-19T05:51:58.357Z,90.77
2017-10-19T05:54:25.769Z,90.79
2017-10-19T05:56:53.161Z,90.77
2017-10-19T05:59:20.561Z,90.79
2017-10-19T06:01:47.974Z,91.79
2017-10-19T06:04:15.386Z,91.25
2017-10-19T06:06:42.786Z,90.95
2017-10-19T06:09:10.191Z,90.83
2017-10-19T06:11:37.600Z,90.65
2017-10-19T06:14:05.015Z,90.59
2017-10-19T06:16:32.390Z,90.81
2017-10-19T06:18:59.782Z,90.87
2017-10-19T06:21:27.174Z,90.81
2017-10-19T06:23:54.759Z,90.93
2017-10-19T06:26:22.149Z,91.09
2017-10-19T06:28:50.485Z,91.09
2017-10-19T06:31:17.890Z,91.13
2017-10-19T06:33:45.281Z,91.25
2017-10-19T06:36:12.692Z,91.33
2017-10-19T06:38:40.090Z,91.63
2017-10-19T06:41:07.486Z,91.42
2017-10-19T06:43:34.877Z,91.43
2017-10-19T06:46:02.281Z,91.27
2017-10-19T06:48:29.670Z,91.11
2017-10-19T06:50:57.061Z,90.98
2017-10-19T06:53:24.461Z,90.81
2017-10-19T06:55:51.862Z,90.86
2017-10-19T06:58:19.274Z,90.74
2017-10-19T07:00:46.703Z,90.52
2017-10-19T07:03:14.094Z,90.37
2017-10-19T07:05:41.487Z,90.19
2017-10-19T07:08:08.885Z,90.04
2017-10-19T07:10:36.280Z,89.99
2017-10-19T07:13:03.669Z,89.82
2017-10-19T07:15:31.070Z,89.67
2017-10-19T07:17:58.461Z,89.41
2017-10-19T07:20:25.858Z,89.09
2017-10-19T07:22:53.265Z,88.98
2017-10-19T07:25:20.662Z,89.01
2017-10-19T07:27:48.054Z,88.87
2017-10-19T07:30:15.458Z,88.87
2017-10-19T07:32:42.850Z,88.84
2017-10-19T07:35:10.245Z,88.97
2017-10-19T07:37:37.642Z,88.94
2017-10-19T07:40:05.035Z,88.87
2017-10-19T07:42:32.435Z,88.79
2017-10-19T07:44:59.829Z,88.47
2017-10-19T07:47:27.219Z,88.49
2017-10-19T07:49:54.611Z,88.38
2017-10-19T07:52:22.014Z,88.02
2017-10-19T07:54:49.405Z,87.75
2017-10-19T07:57:16.797Z,87.45
2017-10-19T07:59:44.215Z,87.26
2017-10-19T08:02:11.602Z,87.10
2017-10-19T08:04:38.994Z,87.31
2017-10-19T08:07:06.403Z,87.32
2017-10-19T08:09:33.791Z,84.97
2017-10-19T08:12:01.177Z,84.82
2017-10-19T08:14:28.590Z,85.47
2017-10-19T08:16:55.974Z,85.43
2017-10-19T08:19:23.373Z,84.64
2017-10-19T08:21:50.774Z,84.13
2017-10-19T08:24:18.169Z,83.97
2017-10-19T08:26:45.562Z,83.60
2017-10-19T08:29:12.969Z,82.88
2017-10-19T08:31:40.358Z,81.76
2017-10-19T08:34:07.745Z,80.07
2017-10-19T08:36:35.150Z,80.17
2017-10-19T08:39:02.543Z,79.28
2017-10-19T08:41:29.933Z,79.07
2017-10-19T08:43:57.354Z,77.04
2017-10-19T08:46:24.761Z,78.00
2017-10-19T08:48:52.141Z,76.30
2017-10-19T08:51:19.561Z,76.96
2017-10-19T08:53:46.964Z,76.16
2017-10-19T08:56:14.342Z,75.74
2017-10-19T08:58:41.765Z,73.51
2017-10-19T09:01:09.165Z,75.44
2017-10-19T09:03:36.555Z,74.92
2017-10-19T09:06:03.991Z,75.23
2017-10-19T09:08:31.377Z,73.88
2017-10-19T09:10:58.770Z,70.54
2017-10-19T09:13:26.182Z,71.90
2017-10-19T09:15:53.569Z,71.96
2017-10-19T09:18:20.962Z,68.21
2017-10-19T09:20:48.371Z,69.53
2017-10-19T09:23:15.766Z,67.17
2017-10-19T09:25:43.166Z,66.28
2017-10-19T09:28:10.569Z,64.32
2017-10-19T09:30:37.966Z,63.68
2017-10-19T09:33:05.357Z,63.79
2017-10-19T09:35:32.762Z,62.91
2017-10-19T09:38:00.154Z,64.17
2017-10-19T09:40:27.542Z,65.16
2017-10-19T09:42:54.954Z,64.49
2017-10-19T09:45:22.352Z,64.34
2017-10-19T09:47:49.749Z,63.58
2017-10-19T09:50:17.154Z,62.25
2017-10-19T09:52:44.541Z,60.46
2017-10-19T09:55:11.934Z,61.33
2017-10-19T09:57:39.354Z,59.59
2017-10-19T10:00:06.749Z,57.29
2017-10-19T10:02:34.142Z,57.89
2017-10-19T10:05:01.551Z,57.11
2017-10-19T10:07:28.942Z,55.70
2017-10-19T10:09:56.337Z,57.40
2017-10-19T10:12:23.738Z,58.85
2017-10-19T10:14:51.131Z,57.69
2017-10-19T10:17:18.522Z,55.21
2017-10-19T10:19:46.033Z,52.15
2017-10-19T10:22:13.425Z,51.85
2017-10-19T10:24:40.826Z,52.67
2017-10-19T10:27:08.226Z,52.12
2017-10-19T10:29:35.618Z,52.71
2017-10-19T10:32:03.030Z,52.50
2017-10-19T10:34:30.438Z,52.23
2017-10-19T10:36:57.837Z,53.46
2017-10-19T10:39:25.229Z,50.99
2017-10-19T10:41:52.639Z,50.45
2017-10-19T10:44:20.030Z,51.57
2017-10-19T10:46:47.417Z,50.93
2017-10-19T10:49:14.828Z,51.03
2017-10-19T10:51:42.222Z,50.67
2017-10-19T10:54:09.614Z,50.54
2017-10-19T10:56:37.022Z,51.87
2017-10-19T10:59:04.418Z,49.99
2017-10-19T11:01:31.817Z,48.35
2017-10-19T11:03:59.225Z,49.45
2017-10-19T11:06:26.614Z,50.54
2017-10-19T11:08:54.003Z,48.93
2017-10-19T11:11:21.402Z,48.92
2017-10-19T11:13:48.791Z,49.49
2017-10-19T11:16:16.177Z,48.74
2017-10-19T11:18:43.585Z,49.52
2017-10-19T11:21:10.987Z,50.44
2017-10-19T11:23:38.373Z,48.60
2017-10-19T11:26:06.598Z,50.46
2017-10-19T11:28:33.988Z,48.79
2017-10-19T11:31:01.379Z,50.66
2017-10-19T11:33:28.787Z,51.94
2017-10-19T11:35:56.175Z,51.06
2017-10-19T11:38:23.562Z,50.30
2017-10-19T11:40:50.962Z,50.18
2017-10-19T11:43:18.346Z,49.42
2017-10-19T11:45:45.742Z,49.33
2017-10-19T11:48:13.153Z,50.32
2017-10-19T11:50:40.537Z,50.43
2017-10-19T11:53:07.936Z,50.89
2017-10-19T11:55:35.329Z,52.38
2017-10-19T11:58:02.718Z,50.86
2017-10-19T12:00:30.117Z,52.08
2017-10-19T12:02:57.516Z,50.47
2017-10-19T12:05:24.910Z,49.42
2017-10-19T12:07:52.302Z,51.85
2017-10-19T12:10:19.707Z,50.54
2017-10-19T12:12:47.093Z,51.07
2017-10-19T12:15:14.482Z,49.30
2017-10-19T12:17:41.920Z,49.64
2017-10-19T12:20:09.310Z,49.13
2017-10-19T12:22:36.744Z,52.84
2017-10-19T12:25:04.209Z,49.62
2017-10-19T12:27:31.590Z,52.16
2017-10-19T12:29:59.038Z,51.37
2017-10-19T12:32:26.539Z,52.18
2017-10-19T12:34:53.985Z,50.91
2017-10-19T12:37:21.402Z,51.63
2017-10-19T12:39:48.874Z,51.09
2017-10-19T12:42:16.258Z,51.80
2017-10-19T12:44:43.658Z,53.24
2017-10-19T12:47:11.121Z,52.28
2017-10-19T12:49:38.509Z,53.76
2017-10-19T12:52:05.911Z,52.85
2017-10-19T12:54:33.393Z,54.21
2017-10-19T12:57:00.774Z,52.88
2017-10-19T12:59:28.174Z,53.88
2017-10-19T13:01:55.609Z,55.08
2017-10-19T13:04:23.057Z,54.79
2017-10-19T13:06:50.442Z,56.36
2017-10-19T13:09:17.842Z,57.59
2017-10-19T13:11:45.236Z,58.39
2017-10-19T13:14:12.670Z,56.27
2017-10-19T13:16:40.058Z,55.42
2017-10-19T13:19:07.489Z,56.11
2017-10-19T13:21:34.869Z,56.23
2017-10-19T13:24:02.285Z,57.60
2017-10-19T13:26:29.686Z,57.58
2017-10-19T13:28:57.110Z,57.23
2017-10-19T13:31:24.509Z,57.94
2017-10-19T13:33:51.914Z,57.13
2017-10-19T13:36:19.318Z,56.97
2017-10-19T13:38:46.714Z,56.61
2017-10-19T13:41:14.163Z,56.66
2017-10-19T13:43:41.550Z,58.70
2017-10-19T13:46:09.006Z,58.36
2017-10-19T13:48:36.454Z,60.03
2017-10-19T13:51:03.848Z,56.63
2017-10-19T13:53:31.253Z,59.32
2017-10-19T13:55:58.667Z,58.79
2017-10-19T13:58:26.043Z,57.92
2017-10-19T14:00:53.482Z,58.82
2017-10-19T14:03:20.897Z,57.99
2017-10-19T14:05:48.291Z,57.95
2017-10-19T14:08:15.697Z,58.13
2017-10-19T14:10:43.085Z,61.31
2017-10-19T14:13:10.497Z,61.97
2017-10-19T14:15:37.899Z,59.39
2017-10-19T14:18:05.287Z,58.53
2017-10-19T14:20:32.685Z,59.49
2017-10-19T14:23:00.098Z,59.47
2017-10-19T14:25:27.499Z,59.64
2017-10-19T14:27:54.893Z,58.66
2017-10-19T14:30:22.372Z,58.90
2017-10-19T14:32:49.777Z,59.35
2017-10-19T14:35:17.162Z,60.22
2017-10-19T14:37:45.202Z,61.71
2017-10-19T14:40:12.636Z,57.92
2017-10-19T14:42:40.674Z,58.31
2017-10-19T14:45:08.441Z,59.21
2017-10-19T14:47:35.838Z,58.29
2017-10-19T14:50:03.455Z,58.97
2017-10-19T14:52:31.442Z,58.05
2017-10-19T14:54:58.834Z,56.98
2017-10-19T14:57:26.220Z,58.34
2017-10-19T14:59:53.700Z,58.70
2017-10-19T15:02:21.089Z,58.31
2017-10-19T15:04:48.513Z,60.02
2017-10-19T15:07:15.929Z,59.87
2017-10-19T15:09:49.851Z,61.29
2017-10-19T15:12:17.298Z,59.71
2017-10-19T15:14:44.980Z,61.15
2017-10-19T15:17:12.377Z,59.47
2017-10-19T15:19:39.789Z,59.77
2017-10-19T15:22:07.709Z,61.46
2017-10-19T15:24:35.115Z,60.46
2017-10-19T15:27:02.513Z,59.88
2017-10-19T15:29:30.855Z,60.75
2017-10-19T15:31:58.261Z,62.13
2017-10-19T15:34:25.667Z,60.11
2017-10-19T15:36:53.050Z,61.59
2017-10-19T15:39:20.445Z,61.86
2017-10-19T15:41:47.886Z,61.64
2017-10-19T15:44:15.271Z,63.04
2017-10-19T15:46:42.765Z,61.13
2017-10-19T15:49:10.161Z,62.50
2017-10-19T15:51:37.550Z,62.42
2017-10-19T15:54:04.945Z,63.47
2017-10-19T15:56:32.349Z,63.41
2017-10-19T15:58:59.913Z,62.57
2017-10-19T16:01:27.302Z,64.06
2017-10-19T16:03:54.709Z,63.99
2017-10-19T16:06:22.130Z,64.73
2017-10-19T16:08:49.570Z,65.47
2017-10-19T16:11:16.978Z,65.45
2017-10-19T16:13:44.367Z,64.96
2017-10-19T16:16:11.780Z,65.66
2017-10-19T16:18:45.782Z,65.37
2017-10-19T16:21:13.161Z,66.34
2017-10-19T16:23:40.553Z,66.68
2017-10-19T16:26:07.962Z,66.98
2017-10-19T16:28:35.362Z,67.39
2017-10-19T16:31:02.738Z,67.73
2017-10-19T16:33:30.153Z,67.07
2017-10-19T16:35:57.547Z,67.65
2017-10-19T16:38:24.934Z,67.82
2017-10-19T16:40:52.333Z,66.72
2017-10-19T16:43:19.737Z,67.47
2017-10-19T16:45:47.120Z,67.45
2017-10-19T16:48:14.553Z,67.82
2017-10-19T16:50:41.988Z,68.60
2017-10-19T16:53:09.374Z,68.27
2017-10-19T16:55:36.778Z,68.77
2017-10-19T16:58:04.162Z,69.02
2017-10-19T17:00:31.575Z,68.81
2017-10-19T17:02:58.974Z,68.78
2017-10-19T17:05:26.381Z,68.91
2017-10-19T17:07:53.770Z,69.22
2017-10-19T17:10:21.181Z,68.68
2017-10-19T17:12:48.557Z,68.73
2017-10-19T17:15:15.957Z,69.06
2017-10-19T17:17:43.650Z,68.83
2017-10-19T17:20:11.055Z,68.54
2017-10-19T17:22:38.477Z,68.87
2017-10-19T17:25:05.893Z,69.00
2017-10-19T17:27:33.265Z,69.46
2017-10-19T17:30:00.659Z,69.20
2017-10-19T17:32:28.068Z,69.19
2017-10-19T17:34:55.457Z,69.71
2017-10-19T17:37:22.838Z,69.16
2017-10-19T17:39:50.258Z,68.98
2017-10-19T17:42:17.651Z,70.17
2017-10-19T17:44:45.047Z,69.96
2017-10-19T17:47:12.541Z,69.76
2017-10-19T17:49:39.959Z,70.14
2017-10-19T17:52:07.334Z,70.36
2017-10-19T17:54:34.781Z,70.33
2017-10-19T17:57:02.201Z,70.38
2017-10-19T17:59:29.614Z,70.03
2017-10-19T18:01:57.031Z,69.40
2017-10-19T18:04:24.661Z,69.53
2017-10-19T18:06:52.060Z,69.39
2017-10-19T18:09:19.459Z,69.18
2017-10-19T18:11:46.869Z,69.54
2017-10-19T18:14:14.318Z,69.85
2017-10-19T18:16:41.768Z,69.98
2017-10-19T18:19:09.190Z,70.45
2017-10-19T18:21:36.763Z,70.61
2017-10-19T18:24:04.222Z,70.52
2017-10-19T18:26:31.662Z,70.52
2017-10-19T18:28:59.256Z,70.61
2017-10-19T18:31:26.725Z,70.78
2017-10-19T18:33:54.097Z,71.34
2017-10-19T18:36:21.489Z,71.93
2017-10-19T18:38:48.908Z,72.33
2017-10-19T18:41:16.326Z,72.43
2017-10-19T18:43:43.790Z,72.54
2017-10-19T18:46:11.270Z,72.42
2017-10-19T18:48:38.702Z,72.44
2017-10-19T18:51:06.122Z,72.32
2017-10-19T18:53:33.534Z,72.67
2017-10-19T18:56:00.966Z,72.43
2017-10-19T18:58:28.362Z,72.23
2017-10-19T19:00:55.796Z,72.39
2017-10-19T19:03:23.186Z,72.36
2017-10-19T19:05:50.605Z,72.55
2017-10-19T19:08:18.013Z,72.55
2017-10-19T19:10:45.425Z,72.39
2017-10-19T19:13:12.811Z,72.46
2017-10-19T19:15:40.262Z,72.44
2017-10-19T19:18:07.668Z,72.57
2017-10-19T19:20:35.090Z,72.73
2017-10-19T19:23:02.541Z,72.84
2017-10-19T19:25:29.939Z,72.99
2017-10-19T19:27:57.325Z,73.00
2017-10-19T19:30:24.726Z,73.35
2017-10-19T19:32:52.147Z,73.58
2017-10-19T19:35:19.531Z,73.70
2017-10-19T19:37:46.954Z,73.74
2017-10-19T19:40:14.349Z,74.01
2017-10-19T19:42:41.791Z,74.24
2017-10-19T19:45:09.194Z,74.39
2017-10-19T19:47:36.583Z,74.51
2017-10-19T19:50:03.967Z,74.48
2017-10-19T19:52:31.429Z,74.58
2017-10-19T19:54:58.827Z,74.46
2017-10-19T19:57:26.224Z,74.59
2017-10-19T19:59:53.626Z,74.57
2017-10-19T20:02:21.074Z,74.71
2017-10-19T20:04:48.486Z,74.24
2017-10-19T20:07:15.886Z,74.47
2017-10-19T20:09:43.298Z,74.69
2017-10-19T20:12:10.674Z,74.96
2017-10-19T20:14:38.122Z,75.19
2017-10-19T20:17:05.519Z,75.36
2017-10-19T20:19:32.893Z,75.51
2017-10-19T20:22:00.356Z,75.60
2017-10-19T20:24:27.725Z,75.65
2017-10-19T20:26:55.151Z,75.75
2017-10-19T20:29:22.586Z,75.95
2017-10-19T20:31:49.983Z,75.89
2017-10-19T20:34:17.379Z,75.75
2017-10-19T20:36:44.800Z,75.72
2017-10-19T20:39:12.195Z,75.72
2017-10-19T20:41:39.581Z,75.60
2017-10-19T20:44:06.999Z,75.65
2017-10-19T20:46:34.382Z,75.45
2017-10-19T20:49:01.789Z,75.04
2017-10-19T20:51:29.177Z,75.08
2017-10-19T20:53:56.570Z,75.39
2017-10-19T20:56:23.969Z,75.65
2017-10-19T20:58:51.374Z,75.10
2017-10-19T21:01:18.778Z,75.58
2017-10-19T21:03:46.187Z,75.69
2017-10-19T21:06:13.586Z,75.70
2017-10-19T21:08:40.970Z,75.72
2017-10-19T21:11:08.368Z,75.65
2017-10-19T21:13:35.767Z,75.46
2017-10-19T21:16:03.184Z,74.81
2017-10-19T21:18:30.580Z,75.35
2017-10-19T21:20:57.981Z,75.51
2017-10-19T21:23:25.377Z,74.35
2017-10-19T21:25:52.753Z,74.43
2017-10-19T21:28:20.149Z,74.86
2017-10-19T21:30:47.554Z,74.80
2017-10-19T21:33:14.947Z,74.77
2017-10-19T21:35:42.351Z,74.77
2017-10-19T21:38:09.735Z,74.60
2017-10-19T21:40:37.133Z,74.72
2017-10-19T21:43:04.522Z,74.38
2017-10-19T21:45:31.910Z,74.44
2017-10-19T21:47:59.321Z,74.46
2017-10-19T21:50:26.709Z,74.58
2017-10-19T21:52:54.097Z,74.32
2017-10-19T21:55:21.532Z,74.75
2017-10-19T21:57:48.962Z,74.84
2017-10-19T22:00:16.366Z,74.85
2017-10-19T22:02:43.750Z,74.18
2017-10-19T22:05:11.154Z,74.45
2017-10-19T22:07:38.579Z,73.45
2017-10-19T22:10:05.957Z,73.65
2017-10-19T22:12:33.354Z,73.08
2017-10-19T22:15:00.746Z,73.42
2017-10-19T22:17:28.171Z,73.69
2017-10-19T22:19:55.573Z,73.40
2017-10-19T22:22:22.969Z,73.00
2017-10-19T22:24:50.369Z,71.99
2017-10-19T22:27:17.774Z,72.61
2017-10-19T22:29:45.165Z,72.26
2017-10-19T22:32:12.558Z,71.90
2017-10-19T22:34:39.955Z,71.79
2017-10-19T22:37:07.338Z,70.42
2017-10-19T22:39:34.728Z,70.66
2017-10-19T22:42:02.130Z,70.24
2017-10-19T22:44:29.514Z,70.71
2017-10-19T22:46:56.899Z,68.98
2017-10-19T22:49:24.296Z,69.37
2017-10-19T22:51:51.686Z,67.84
2017-10-19T22:54:19.073Z,67.29
2017-10-19T22:56:46.474Z,66.56
2017-10-19T22:59:13.862Z,66.26
2017-10-19T23:01:41.245Z,66.23
2017-10-19T23:04:08.657Z,65.90
2017-10-19T23:06:36.043Z,66.00
2017-10-19T23:09:03.430Z,66.23
2017-10-19T23:11:30.838Z,66.07
2017-10-19T23:13:58.219Z,65.44
2017-10-19T23:16:25.607Z,64.39
2017-10-19T23:18:53.016Z,64.63
2017-10-19T23:21:20.395Z,64.21
2017-10-19T23:23:47.784Z,65.02
2017-10-19T23:26:15.193Z,65.22
2017-10-19T23:28:42.590Z,63.65
2017-10-19T23:31:09.983Z,64.27
2017-10-19T23:33:37.385Z,63.31
2017-10-19T23:36:04.778Z,63.09
2017-10-19T23:38:32.159Z,62.00
2017-10-19T23:40:59.554Z,62.60
2017-10-19T23:43:26.947Z,63.11
2017-10-19T23:45:54.337Z,63.49
2017-10-19T23:48:21.746Z,61.20
2017-10-19T23:50:49.132Z,61.75
2017-10-19T23:53:16.519Z,61.58
2017-10-19T23:55:43.926Z,62.13
2017-10-19T23:58:11.315Z,61.89
